ADDS METAR Data INFO
IDs: Format: Raw Decoded Include TAF

Data at: 1159 UTC 21 Jun 2018

KRIL 211153Z AUTO 16003KT 10SM CLR 11/02 A3021 RMK AO2 SLP165 T01110022 10178 20100 53007
KRIL 211053Z AUTO 11005KT 10SM CLR 11/02 A3019 RMK AO2 SLP161 T01060022
KRIL 210953Z AUTO 00000KT 10SM CLR 13/03 A3019 RMK AO2 SLP156 T01280028
KRIL 210853Z AUTO 00000KT 10SM CLR 14/02 A3018 RMK AO2 SLP152 T01390022 51006
KRIL 210753Z AUTO 00000KT 10SM CLR 16/02 A3018 RMK AO2 SLP148 T01610022
KRIL 210653Z AUTO 12005KT 10SM CLR 16/03 A3017 RMK AO2 SLP150 T01610028 403060094
KRIL 210553Z AUTO 12006KT 10SM CLR 18/02 A3016 RMK AO2 SLP146 T01780017 10300 20172 51012
KRIL 210453Z AUTO 17007KT 10SM CLR 20/02 A3015 RMK AO2 SLP139 T02000017
KRIL 210353Z AUTO 17005KT 10SM CLR 22/02 A3014 RMK AO2 SLP138 T02170017
KRIL 210253Z AUTO 02004KT 10SM CLR 26/02 A3012 RMK AO2 SLP130 T02560017 53009
KRIL 210153Z AUTO 32008KT 10SM CLR 28/01 A3011 RMK AO2 SLP126 T02830011
KRIL 210053Z AUTO 33007G15KT 10SM FEW110 30/01 A3009 RMK AO2 SLP122 T03000011
KRIL 202353Z AUTO 30007KT 10SM CLR 29/01 A3009 RMK AO2 SLP126 T02890011 10306 20244 56007
KRIL 202253Z AUTO 26006KT 10SM CLR 29/01 A3010 RMK AO2 SLP126 T02940006
KRIL 202153Z AUTO VRB04KT 10SM CLR 29/01 A3010 RMK AO2 SLP125 T02940006
KRIL 202053Z AUTO 30007KT 10SM CLR 29/01 A3011 RMK AO2 SLP129 T02890011 56015
KRIL 201953Z AUTO 33008KT 310V020 10SM CLR 28/01 A3013 RMK AO2 SLP129 T02780011
KRIL 201853Z AUTO 36005KT 10SM CLR 26/02 A3014 RMK AO2 SLP136 T02610017
KRIL 201753Z AUTO VRB04KT 10SM CLR 24/02 A3016 RMK AO2 SLP145 T02440017 10250 20100 57014
KRIL 201653Z AUTO 19004KT 10SM CLR 23/02 A3018 RMK AO2 SLP150 T02280022
KRIL 201553Z AUTO 00000KT 10SM CLR 21/04 A3020 RMK AO2 SLP161 T02060039
KRIL 201453Z AUTO 00000KT 10SM CLR 18/04 A3021 RMK AO2 SLP166 T01780044 53008
KRIL 201353Z AUTO 00000KT 10SM CLR 15/05 A3020 RMK AO2 SLP164 T01500050
KRIL 201253Z AUTO 10003KT 10SM CLR 12/04 A3019 RMK AO2 SLP158 T01220039 $
KRIL 201153Z AUTO 13004KT 10SM CLR 10/03 A3018 RMK AO2 SLP157 T01000033 10189 20094 53006 $
KRIL 201053Z AUTO 10003KT 10SM CLR 11/ A3016 RMK AO2 SLP149 T0106 $
KRIL 200953Z AUTO 07003KT 10SM CLR 12/ A3016 RMK AO2 SLP148 T0117 $
KRIL 200853Z AUTO 12004KT 10SM CLR 13/ A3016 RMK AO2 SLP145 T0133 53010 $
KRIL 200753Z AUTO 29005KT 10SM CLR 17/04 A3015 RMK AO2 SLP136 T01670039 $
KRIL 200653Z AUTO 28006KT 10SM CLR 18/03 A3014 RMK AO2 SLP131 T01780033 403060072 $
KRIL 200553Z AUTO 28005KT 10SM CLR 19/ A3013 RMK AO2 SLP127 T0189 10300 20189 51025 $
KRIL 200453Z AUTO 00000KT 10SM CLR 20/ A3011 RMK AO2 SLP128 T0200 $
KRIL 200353Z AUTO 01006KT 10SM CLR 21/ A3009 RMK AO2 SLP126 T0206 $
KRIL 200253Z AUTO 31006KT 10SM CLR 23/ A3004 RMK AO2 SLP106 T0233 53016 $
KRIL 200153Z AUTO 33006KT 10SM CLR 25/01 A3001 RMK AO2 SLP101 T02500006
KRIL 200053Z AUTO 31012KT 10SM CLR 28/M02 A2999 RMK AO2 SLP091 T02831017